sensor_id;sensor_type;location;lat;lon;timestamp;P1;durP1;ratioP1;P2;durP2;ratioP2
53040;SDS011;39326;42.650;23.248;2023-07-24T00:00:37;10.02;;;9.02;;
53040;SDS011;39326;42.650;23.248;2023-07-24T00:03:05;8.63;;;7.90;;
53040;SDS011;39326;42.650;23.248;2023-07-24T00:05:30;10.25;;;9.30;;
53040;SDS011;39326;42.650;23.248;2023-07-24T00:07:56;10.23;;;9.20;;
53040;SDS011;39326;42.650;23.248;2023-07-24T00:10:21;9.25;;;8.35;;
53040;SDS011;39326;42.650;23.248;2023-07-24T00:12:47;9.38;;;8.43;;
53040;SDS011;39326;42.650;23.248;2023-07-24T00:15:12;10.15;;;9.25;;
53040;SDS011;39326;42.650;23.248;2023-07-24T00:17:37;10.02;;;9.10;;
53040;SDS011;39326;42.650;23.248;2023-07-24T00:20:03;10.70;;;9.32;;
53040;SDS011;39326;42.650;23.248;2023-07-24T00:22:29;10.77;;;9.77;;
53040;SDS011;39326;42.650;23.248;2023-07-24T00:24:54;10.25;;;9.32;;
53040;SDS011;39326;42.650;23.248;2023-07-24T00:27:19;10.15;;;9.15;;
53040;SDS011;39326;42.650;23.248;2023-07-24T00:29:45;10.60;;;9.65;;
53040;SDS011;39326;42.650;23.248;2023-07-24T00:32:11;11.00;;;10.00;;
53040;SDS011;39326;42.650;23.248;2023-07-24T00:34:36;10.10;;;9.02;;
53040;SDS011;39326;42.650;23.248;2023-07-24T00:37:02;11.35;;;9.50;;
53040;SDS011;39326;42.650;23.248;2023-07-24T00:39:28;12.38;;;10.32;;
53040;SDS011;39326;42.650;23.248;2023-07-24T00:41:54;11.02;;;10.02;;
53040;SDS011;39326;42.650;23.248;2023-07-24T00:44:20;10.25;;;9.25;;
53040;SDS011;39326;42.650;23.248;2023-07-24T00:46:45;11.32;;;10.23;;
53040;SDS011;39326;42.650;23.248;2023-07-24T00:49:11;12.07;;;10.95;;
53040;SDS011;39326;42.650;23.248;2023-07-24T00:51:37;11.77;;;10.57;;
53040;SDS011;39326;42.650;23.248;2023-07-24T00:54:03;11.98;;;10.82;;
53040;SDS011;39326;42.650;23.248;2023-07-24T00:56:30;12.57;;;11.35;;
53040;SDS011;39326;42.650;23.248;2023-07-24T00:58:57;11.73;;;10.13;;
53040;SDS011;39326;42.650;23.248;2023-07-24T01:01:23;12.05;;;10.30;;
53040;SDS011;39326;42.650;23.248;2023-07-24T01:03:49;13.10;;;11.50;;
53040;SDS011;39326;42.650;23.248;2023-07-24T01:06:16;13.93;;;12.52;;
53040;SDS011;39326;42.650;23.248;2023-07-24T01:08:41;13.25;;;11.43;;
53040;SDS011;39326;42.650;23.248;2023-07-24T01:11:10;13.80;;;12.40;;
53040;SDS011;39326;42.650;23.248;2023-07-24T01:13:42;13.18;;;11.85;;
53040;SDS011;39326;42.650;23.248;2023-07-24T01:16:33;13.10;;;11.80;;
53040;SDS011;39326;42.650;23.248;2023-07-24T01:19:04;13.45;;;12.15;;
53040;SDS011;39326;42.650;23.248;2023-07-24T01:22:25;14.18;;;12.75;;
53040;SDS011;39326;42.650;23.248;2023-07-24T01:27:42;12.98;;;11.68;;
53040;SDS011;39326;42.650;23.248;2023-07-24T01:30:09;13.73;;;12.32;;
53040;SDS011;39326;42.650;23.248;2023-07-24T01:32:35;12.30;;;11.10;;
53040;SDS011;39326;42.650;23.248;2023-07-24T01:35:02;11.82;;;10.73;;
53040;SDS011;39326;42.650;23.248;2023-07-24T01:37:27;13.40;;;12.10;;
53040;SDS011;39326;42.650;23.248;2023-07-24T01:39:53;12.77;;;11.48;;
53040;SDS011;39326;42.650;23.248;2023-07-24T01:42:21;12.43;;;11.20;;
53040;SDS011;39326;42.650;23.248;2023-07-24T01:44:51;12.65;;;11.43;;
53040;SDS011;39326;42.650;23.248;2023-07-24T01:47:17;12.80;;;11.50;;
53040;SDS011;39326;42.650;23.248;2023-07-24T01:49:43;13.82;;;12.27;;
53040;SDS011;39326;42.650;23.248;2023-07-24T01:52:08;13.23;;;11.93;;
53040;SDS011;39326;42.650;23.248;2023-07-24T01:54:33;13.55;;;11.90;;
53040;SDS011;39326;42.650;23.248;2023-07-24T01:56:59;13.02;;;11.73;;
53040;SDS011;39326;42.650;23.248;2023-07-24T01:59:24;13.48;;;12.15;;
53040;SDS011;39326;42.650;23.248;2023-07-24T02:01:50;13.32;;;12.02;;
53040;SDS011;39326;42.650;23.248;2023-07-24T02:04:15;15.50;;;12.20;;
53040;SDS011;39326;42.650;23.248;2023-07-24T02:06:40;13.55;;;12.25;;
53040;SDS011;39326;42.650;23.248;2023-07-24T02:09:06;13.68;;;12.25;;
53040;SDS011;39326;42.650;23.248;2023-07-24T02:11:31;13.45;;;12.13;;
53040;SDS011;39326;42.650;23.248;2023-07-24T02:13:57;13.60;;;12.30;;
53040;SDS011;39326;42.650;23.248;2023-07-24T02:16:22;14.20;;;12.80;;
53040;SDS011;39326;42.650;23.248;2023-07-24T02:18:47;13.30;;;12.00;;
53040;SDS011;39326;42.650;23.248;2023-07-24T02:21:13;14.52;;;12.95;;
53040;SDS011;39326;42.650;23.248;2023-07-24T02:23:38;13.70;;;12.10;;
53040;SDS011;39326;42.650;23.248;2023-07-24T02:26:04;14.73;;;13.07;;
53040;SDS011;39326;42.650;23.248;2023-07-24T02:28:29;13.55;;;12.27;;
53040;SDS011;39326;42.650;23.248;2023-07-24T02:30:54;13.98;;;12.57;;
53040;SDS011;39326;42.650;23.248;2023-07-24T02:33:24;14.80;;;13.35;;
53040;SDS011;39326;42.650;23.248;2023-07-24T02:35:50;14.52;;;13.02;;
53040;SDS011;39326;42.650;23.248;2023-07-24T02:38:16;15.27;;;13.68;;
53040;SDS011;39326;42.650;23.248;2023-07-24T02:40:43;13.82;;;12.43;;
53040;SDS011;39326;42.650;23.248;2023-07-24T02:43:09;14.65;;;13.15;;
53040;SDS011;39326;42.650;23.248;2023-07-24T02:45:35;14.60;;;13.20;;
53040;SDS011;39326;42.650;23.248;2023-07-24T02:48:00;16.90;;;15.10;;
53040;SDS011;39326;42.650;23.248;2023-07-24T02:50:27;14.93;;;13.40;;
53040;SDS011;39326;42.650;23.248;2023-07-24T02:52:52;14.98;;;13.38;;
53040;SDS011;39326;42.650;23.248;2023-07-24T02:55:18;13.80;;;12.27;;
53040;SDS011;39326;42.650;23.248;2023-07-24T02:57:43;15.40;;;13.90;;
53040;SDS011;39326;42.650;23.248;2023-07-24T03:00:08;14.43;;;12.93;;
53040;SDS011;39326;42.650;23.248;2023-07-24T03:02:34;14.98;;;13.48;;
53040;SDS011;39326;42.650;23.248;2023-07-24T03:05:00;14.68;;;13.18;;
53040;SDS011;39326;42.650;23.248;2023-07-24T03:07:25;14.88;;;13.45;;
53040;SDS011;39326;42.650;23.248;2023-07-24T03:09:50;15.10;;;13.60;;
53040;SDS011;39326;42.650;23.248;2023-07-24T03:12:16;16.02;;;13.38;;
53040;SDS011;39326;42.650;23.248;2023-07-24T03:14:41;16.60;;;14.90;;
53040;SDS011;39326;42.650;23.248;2023-07-24T03:17:07;16.17;;;14.48;;
53040;SDS011;39326;42.650;23.248;2023-07-24T03:19:32;15.52;;;13.93;;
53040;SDS011;39326;42.650;23.248;2023-07-24T03:21:58;18.33;;;15.15;;
53040;SDS011;39326;42.650;23.248;2023-07-24T03:24:23;19.50;;;16.42;;
53040;SDS011;39326;42.650;23.248;2023-07-24T03:26:48;17.35;;;14.52;;
53040;SDS011;39326;42.650;23.248;2023-07-24T03:29:14;16.52;;;14.75;;
53040;SDS011;39326;42.650;23.248;2023-07-24T03:31:39;15.60;;;13.95;;
53040;SDS011;39326;42.650;23.248;2023-07-24T03:34:04;15.98;;;13.90;;
53040;SDS011;39326;42.650;23.248;2023-07-24T03:36:30;17.13;;;15.32;;
53040;SDS011;39326;42.650;23.248;2023-07-24T03:38:55;16.98;;;15.18;;
53040;SDS011;39326;42.650;23.248;2023-07-24T03:41:21;16.52;;;14.82;;
53040;SDS011;39326;42.650;23.248;2023-07-24T03:43:46;16.00;;;14.35;;
53040;SDS011;39326;42.650;23.248;2023-07-24T03:46:11;16.02;;;14.40;;
53040;SDS011;39326;42.650;23.248;2023-07-24T03:48:37;17.02;;;15.23;;
53040;SDS011;39326;42.650;23.248;2023-07-24T03:51:02;17.27;;;15.25;;
53040;SDS011;39326;42.650;23.248;2023-07-24T03:53:28;15.93;;;14.27;;
53040;SDS011;39326;42.650;23.248;2023-07-24T03:55:53;16.33;;;14.60;;
53040;SDS011;39326;42.650;23.248;2023-07-24T03:58:20;16.83;;;14.50;;
53040;SDS011;39326;42.650;23.248;2023-07-24T04:00:45;15.85;;;13.23;;
53040;SDS011;39326;42.650;23.248;2023-07-24T04:03:11;15.00;;;13.07;;
53040;SDS011;39326;42.650;23.248;2023-07-24T04:05:36;16.92;;;13.93;;
53040;SDS011;39326;42.650;23.248;2023-07-24T04:08:02;16.63;;;13.95;;
53040;SDS011;39326;42.650;23.248;2023-07-24T04:10:28;15.27;;;13.68;;
53040;SDS011;39326;42.650;23.248;2023-07-24T04:12:54;15.85;;;14.30;;
53040;SDS011;39326;42.650;23.248;2023-07-24T04:15:19;14.55;;;13.15;;
53040;SDS011;39326;42.650;23.248;2023-07-24T04:17:45;14.68;;;13.18;;
53040;SDS011;39326;42.650;23.248;2023-07-24T04:20:10;16.00;;;14.35;;
53040;SDS011;39326;42.650;23.248;2023-07-24T04:22:36;15.02;;;13.52;;
53040;SDS011;39326;42.650;23.248;2023-07-24T04:25:01;15.27;;;13.68;;
53040;SDS011;39326;42.650;23.248;2023-07-24T04:27:27;14.27;;;12.88;;
53040;SDS011;39326;42.650;23.248;2023-07-24T04:29:53;14.82;;;13.23;;
53040;SDS011;39326;42.650;23.248;2023-07-24T04:32:18;14.20;;;12.80;;
53040;SDS011;39326;42.650;23.248;2023-07-24T04:34:44;13.70;;;12.27;;
53040;SDS011;39326;42.650;23.248;2023-07-24T04:37:09;14.68;;;13.25;;
53040;SDS011;39326;42.650;23.248;2023-07-24T04:39:35;14.65;;;13.23;;
53040;SDS011;39326;42.650;23.248;2023-07-24T04:42:00;14.20;;;12.80;;
53040;SDS011;39326;42.650;23.248;2023-07-24T04:44:25;14.10;;;12.70;;
53040;SDS011;39326;42.650;23.248;2023-07-24T04:46:51;15.30;;;13.80;;
53040;SDS011;39326;42.650;23.248;2023-07-24T04:49:16;18.30;;;15.10;;
53040;SDS011;39326;42.650;23.248;2023-07-24T04:51:42;16.48;;;14.80;;
53040;SDS011;39326;42.650;23.248;2023-07-24T04:54:07;15.18;;;13.57;;
53040;SDS011;39326;42.650;23.248;2023-07-24T04:56:32;15.15;;;13.55;;
53040;SDS011;39326;42.650;23.248;2023-07-24T04:58:58;16.17;;;13.80;;
53040;SDS011;39326;42.650;23.248;2023-07-24T05:01:23;16.60;;;14.82;;
53040;SDS011;39326;42.650;23.248;2023-07-24T05:03:49;17.02;;;14.18;;
53040;SDS011;39326;42.650;23.248;2023-07-24T05:06:14;15.00;;;13.23;;
53040;SDS011;39326;42.650;23.248;2023-07-24T05:08:39;15.13;;;13.60;;
53040;SDS011;39326;42.650;23.248;2023-07-24T05:11:05;16.33;;;14.43;;
53040;SDS011;39326;42.650;23.248;2023-07-24T05:13:30;19.85;;;14.80;;
53040;SDS011;39326;42.650;23.248;2023-07-24T05:15:55;16.00;;;14.13;;
53040;SDS011;39326;42.650;23.248;2023-07-24T05:18:21;17.10;;;15.38;;
53040;SDS011;39326;42.650;23.248;2023-07-24T05:20:47;17.17;;;15.35;;
53040;SDS011;39326;42.650;23.248;2023-07-24T05:23:13;16.52;;;14.82;;
53040;SDS011;39326;42.650;23.248;2023-07-24T05:25:39;16.25;;;14.65;;
53040;SDS011;39326;42.650;23.248;2023-07-24T05:28:05;16.55;;;14.65;;
53040;SDS011;39326;42.650;23.248;2023-07-24T05:30:30;16.83;;;15.13;;
53040;SDS011;39326;42.650;23.248;2023-07-24T05:32:56;16.70;;;14.95;;
53040;SDS011;39326;42.650;23.248;2023-07-24T05:35:21;16.25;;;14.30;;
53040;SDS011;39326;42.650;23.248;2023-07-24T05:37:47;17.17;;;15.48;;
53040;SDS011;39326;42.650;23.248;2023-07-24T05:40:12;16.75;;;14.18;;
53040;SDS011;39326;42.650;23.248;2023-07-24T05:42:38;16.00;;;14.50;;
53040;SDS011;39326;42.650;23.248;2023-07-24T05:45:07;15.93;;;14.20;;
53040;SDS011;39326;42.650;23.248;2023-07-24T05:47:33;15.65;;;14.02;;
53040;SDS011;39326;42.650;23.248;2023-07-24T05:49:59;16.33;;;14.63;;
53040;SDS011;39326;42.650;23.248;2023-07-24T05:52:24;15.95;;;14.23;;
53040;SDS011;39326;42.650;23.248;2023-07-24T05:54:50;15.80;;;14.27;;
53040;SDS011;39326;42.650;23.248;2023-07-24T05:57:15;16.38;;;14.77;;
53040;SDS011;39326;42.650;23.248;2023-07-24T05:59:40;16.10;;;13.82;;
53040;SDS011;39326;42.650;23.248;2023-07-24T06:02:06;16.35;;;14.65;;
53040;SDS011;39326;42.650;23.248;2023-07-24T06:04:32;15.45;;;13.98;;
53040;SDS011;39326;42.650;23.248;2023-07-24T06:06:58;15.52;;;13.93;;
53040;SDS011;39326;42.650;23.248;2023-07-24T06:09:23;16.35;;;14.63;;
53040;SDS011;39326;42.650;23.248;2023-07-24T06:11:49;16.17;;;14.52;;
53040;SDS011;39326;42.650;23.248;2023-07-24T06:14:14;15.32;;;13.82;;
53040;SDS011;39326;42.650;23.248;2023-07-24T06:16:40;16.65;;;14.65;;
53040;SDS011;39326;42.650;23.248;2023-07-24T06:19:05;17.88;;;13.90;;
53040;SDS011;39326;42.650;23.248;2023-07-24T06:21:31;15.57;;;14.02;;
53040;SDS011;39326;42.650;23.248;2023-07-24T06:23:56;15.75;;;14.05;;
53040;SDS011;39326;42.650;23.248;2023-07-24T06:26:21;17.88;;;15.50;;
53040;SDS011;39326;42.650;23.248;2023-07-24T06:28:47;14.77;;;13.30;;
53040;SDS011;39326;42.650;23.248;2023-07-24T06:31:12;16.05;;;14.35;;
53040;SDS011;39326;42.650;23.248;2023-07-24T06:33:38;14.77;;;13.48;;
53040;SDS011;39326;42.650;23.248;2023-07-24T06:36:03;17.55;;;15.00;;
53040;SDS011;39326;42.650;23.248;2023-07-24T06:38:33;16.88;;;15.18;;
53040;SDS011;39326;42.650;23.248;2023-07-24T06:40:58;16.88;;;15.00;;
53040;SDS011;39326;42.650;23.248;2023-07-24T06:43:24;15.25;;;13.82;;
53040;SDS011;39326;42.650;23.248;2023-07-24T06:45:49;17.42;;;15.60;;
53040;SDS011;39326;42.650;23.248;2023-07-24T06:48:15;16.88;;;14.70;;
53040;SDS011;39326;42.650;23.248;2023-07-24T06:50:40;17.25;;;15.52;;
53040;SDS011;39326;42.650;23.248;2023-07-24T06:53:05;16.55;;;14.77;;
53040;SDS011;39326;42.650;23.248;2023-07-24T06:55:31;17.08;;;15.25;;
53040;SDS011;39326;42.650;23.248;2023-07-24T06:57:56;16.00;;;14.23;;
53040;SDS011;39326;42.650;23.248;2023-07-24T07:00:22;16.17;;;14.25;;
53040;SDS011;39326;42.650;23.248;2023-07-24T07:02:47;16.85;;;15.13;;
53040;SDS011;39326;42.650;23.248;2023-07-24T07:05:13;15.93;;;14.32;;
53040;SDS011;39326;42.650;23.248;2023-07-24T07:07:38;17.27;;;15.35;;
53040;SDS011;39326;42.650;23.248;2023-07-24T07:10:04;17.65;;;15.63;;
53040;SDS011;39326;42.650;23.248;2023-07-24T07:12:30;18.40;;;15.07;;
53040;SDS011;39326;42.650;23.248;2023-07-24T07:14:55;16.65;;;15.05;;
53040;SDS011;39326;42.650;23.248;2023-07-24T07:17:21;15.57;;;13.93;;
53040;SDS011;39326;42.650;23.248;2023-07-24T07:19:46;16.15;;;14.55;;
53040;SDS011;39326;42.650;23.248;2023-07-24T07:22:11;16.40;;;14.68;;
53040;SDS011;39326;42.650;23.248;2023-07-24T07:24:37;16.83;;;15.00;;
53040;SDS011;39326;42.650;23.248;2023-07-24T07:27:02;15.38;;;13.82;;
53040;SDS011;39326;42.650;23.248;2023-07-24T07:29:28;17.23;;;15.43;;
53040;SDS011;39326;42.650;23.248;2023-07-24T07:31:53;16.95;;;15.43;;
53040;SDS011;39326;42.650;23.248;2023-07-24T07:34:19;16.20;;;14.60;;
53040;SDS011;39326;42.650;23.248;2023-07-24T07:36:44;18.88;;;15.70;;
53040;SDS011;39326;42.650;23.248;2023-07-24T07:39:09;16.70;;;14.93;;
53040;SDS011;39326;42.650;23.248;2023-07-24T07:41:35;15.80;;;14.18;;
53040;SDS011;39326;42.650;23.248;2023-07-24T07:44:00;19.88;;;15.48;;
53040;SDS011;39326;42.650;23.248;2023-07-24T07:46:26;16.33;;;13.88;;
53040;SDS011;39326;42.650;23.248;2023-07-24T07:48:51;16.80;;;13.65;;
53040;SDS011;39326;42.650;23.248;2023-07-24T07:51:17;15.80;;;14.30;;
53040;SDS011;39326;42.650;23.248;2023-07-24T07:53:42;16.42;;;14.70;;
53040;SDS011;39326;42.650;23.248;2023-07-24T07:56:07;15.55;;;13.77;;
53040;SDS011;39326;42.650;23.248;2023-07-24T07:58:33;17.02;;;15.23;;
53040;SDS011;39326;42.650;23.248;2023-07-24T08:01:02;15.70;;;14.23;;
53040;SDS011;39326;42.650;23.248;2023-07-24T08:03:29;16.80;;;15.05;;
53040;SDS011;39326;42.650;23.248;2023-07-24T08:05:56;20.83;;;15.48;;
53040;SDS011;39326;42.650;23.248;2023-07-24T08:08:23;17.25;;;15.63;;
53040;SDS011;39326;42.650;23.248;2023-07-24T08:10:48;17.35;;;15.57;;
53040;SDS011;39326;42.650;23.248;2023-07-24T08:13:13;17.27;;;15.02;;
53040;SDS011;39326;42.650;23.248;2023-07-24T08:15:39;16.65;;;14.60;;
53040;SDS011;39326;42.650;23.248;2023-07-24T08:18:06;16.70;;;14.90;;
53040;SDS011;39326;42.650;23.248;2023-07-24T08:20:32;19.17;;;15.15;;
53040;SDS011;39326;42.650;23.248;2023-07-24T08:23:00;16.92;;;14.23;;
53040;SDS011;39326;42.650;23.248;2023-07-24T08:25:25;17.02;;;15.00;;
53040;SDS011;39326;42.650;23.248;2023-07-24T08:27:51;17.05;;;15.35;;
53040;SDS011;39326;42.650;23.248;2023-07-24T08:30:17;15.77;;;14.18;;
53040;SDS011;39326;42.650;23.248;2023-07-24T08:32:43;17.77;;;14.10;;
53040;SDS011;39326;42.650;23.248;2023-07-24T08:35:09;17.88;;;14.40;;
53040;SDS011;39326;42.650;23.248;2023-07-24T08:37:34;15.98;;;14.38;;
53040;SDS011;39326;42.650;23.248;2023-07-24T08:40:00;17.17;;;14.40;;
53040;SDS011;39326;42.650;23.248;2023-07-24T08:42:25;18.25;;;15.80;;
53040;SDS011;39326;42.650;23.248;2023-07-24T08:44:51;17.27;;;15.07;;
53040;SDS011;39326;42.650;23.248;2023-07-24T08:47:18;17.05;;;15.27;;
53040;SDS011;39326;42.650;23.248;2023-07-24T08:49:44;17.67;;;15.25;;
53040;SDS011;39326;42.650;23.248;2023-07-24T08:52:11;15.50;;;14.00;;
53040;SDS011;39326;42.650;23.248;2023-07-24T08:54:37;18.30;;;13.05;;
53040;SDS011;39326;42.650;23.248;2023-07-24T08:57:04;16.05;;;14.45;;
53040;SDS011;39326;42.650;23.248;2023-07-24T08:59:31;16.55;;;13.52;;
53040;SDS011;39326;42.650;23.248;2023-07-24T09:01:57;16.30;;;14.70;;
53040;SDS011;39326;42.650;23.248;2023-07-24T09:04:23;16.10;;;14.38;;
53040;SDS011;39326;42.650;23.248;2023-07-24T09:06:49;15.98;;;14.32;;
53040;SDS011;39326;42.650;23.248;2023-07-24T09:09:15;16.23;;;13.57;;
53040;SDS011;39326;42.650;23.248;2023-07-24T09:11:48;17.45;;;13.68;;
53040;SDS011;39326;42.650;23.248;2023-07-24T09:16:47;15.98;;;14.32;;
53040;SDS011;39326;42.650;23.248;2023-07-24T09:19:19;15.27;;;13.73;;
53040;SDS011;39326;42.650;23.248;2023-07-24T09:21:44;15.73;;;13.82;;
53040;SDS011;39326;42.650;23.248;2023-07-24T09:24:13;14.23;;;12.60;;
53040;SDS011;39326;42.650;23.248;2023-07-24T09:26:49;14.20;;;12.80;;
53040;SDS011;39326;42.650;23.248;2023-07-24T09:29:18;13.45;;;12.13;;
53040;SDS011;39326;42.650;23.248;2023-07-24T09:31:44;13.23;;;11.85;;
53040;SDS011;39326;42.650;23.248;2023-07-24T09:34:16;13.38;;;11.57;;
53040;SDS011;39326;42.650;23.248;2023-07-24T09:36:42;14.52;;;11.10;;
53040;SDS011;39326;42.650;23.248;2023-07-24T09:39:09;13.07;;;11.60;;
53040;SDS011;39326;42.650;23.248;2023-07-24T09:41:36;14.15;;;11.48;;
53040;SDS011;39326;42.650;23.248;2023-07-24T09:44:02;17.42;;;12.20;;
53040;SDS011;39326;42.650;23.248;2023-07-24T09:46:28;15.55;;;11.05;;
53040;SDS011;39326;42.650;23.248;2023-07-24T09:48:55;13.07;;;10.93;;
53040;SDS011;39326;42.650;23.248;2023-07-24T09:51:22;11.55;;;10.30;;
53040;SDS011;39326;42.650;23.248;2023-07-24T09:53:55;14.88;;;11.27;;
53040;SDS011;39326;42.650;23.248;2023-07-24T09:56:23;11.43;;;9.52;;
53040;SDS011;39326;42.650;23.248;2023-07-24T09:58:50;13.10;;;11.80;;
53040;SDS011;39326;42.650;23.248;2023-07-24T10:01:20;12.75;;;11.02;;
53040;SDS011;39326;42.650;23.248;2023-07-24T10:03:48;12.27;;;10.27;;
53040;SDS011;39326;42.650;23.248;2023-07-24T10:06:15;15.73;;;11.23;;
53040;SDS011;39326;42.650;23.248;2023-07-24T10:08:41;14.02;;;10.88;;
53040;SDS011;39326;42.650;23.248;2023-07-24T10:11:09;12.13;;;10.82;;
53040;SDS011;39326;42.650;23.248;2023-07-24T10:13:36;13.43;;;10.68;;
53040;SDS011;39326;42.650;23.248;2023-07-24T10:16:03;13.20;;;10.55;;
53040;SDS011;39326;42.650;23.248;2023-07-24T10:18:31;13.77;;;11.27;;
53040;SDS011;39326;42.650;23.248;2023-07-24T10:21:00;13.80;;;10.73;;
53040;SDS011;39326;42.650;23.248;2023-07-24T10:23:33;14.63;;;10.60;;
53040;SDS011;39326;42.650;23.248;2023-07-24T10:26:05;14.98;;;10.23;;
53040;SDS011;39326;42.650;23.248;2023-07-24T10:28:35;16.73;;;9.85;;
53040;SDS011;39326;42.650;23.248;2023-07-24T10:31:18;11.13;;;10.05;;
53040;SDS011;39326;42.650;23.248;2023-07-24T10:33:45;13.30;;;9.75;;
53040;SDS011;39326;42.650;23.248;2023-07-24T10:36:11;16.02;;;10.65;;
53040;SDS011;39326;42.650;23.248;2023-07-24T10:38:42;16.88;;;11.15;;
53040;SDS011;39326;42.650;23.248;2023-07-24T10:41:09;13.93;;;9.75;;
53040;SDS011;39326;42.650;23.248;2023-07-24T10:43:52;11.07;;;8.82;;
53040;SDS011;39326;42.650;23.248;2023-07-24T10:46:34;11.77;;;9.20;;
53040;SDS011;39326;42.650;23.248;2023-07-24T10:49:05;15.30;;;9.57;;
53040;SDS011;39326;42.650;23.248;2023-07-24T10:51:31;12.88;;;9.73;;
53040;SDS011;39326;42.650;23.248;2023-07-24T10:54:02;10.80;;;8.65;;
53040;SDS011;39326;42.650;23.248;2023-07-24T10:56:28;12.50;;;8.82;;
53040;SDS011;39326;42.650;23.248;2023-07-24T10:58:54;13.27;;;9.18;;
53040;SDS011;39326;42.650;23.248;2023-07-24T11:01:20;9.82;;;8.82;;
53040;SDS011;39326;42.650;23.248;2023-07-24T11:03:45;9.95;;;8.55;;
53040;SDS011;39326;42.650;23.248;2023-07-24T11:06:12;10.65;;;8.73;;
53040;SDS011;39326;42.650;23.248;2023-07-24T11:08:39;11.32;;;8.50;;
53040;SDS011;39326;42.650;23.248;2023-07-24T11:11:05;10.68;;;8.95;;
53040;SDS011;39326;42.650;23.248;2023-07-24T11:13:31;11.07;;;8.45;;
53040;SDS011;39326;42.650;23.248;2023-07-24T11:15:57;13.85;;;8.85;;
53040;SDS011;39326;42.650;23.248;2023-07-24T11:18:30;10.85;;;9.13;;
53040;SDS011;39326;42.650;23.248;2023-07-24T11:20:55;11.15;;;9.13;;
53040;SDS011;39326;42.650;23.248;2023-07-24T11:23:22;11.43;;;9.02;;
53040;SDS011;39326;42.650;23.248;2023-07-24T11:25:51;11.38;;;9.00;;
53040;SDS011;39326;42.650;23.248;2023-07-24T11:28:18;11.90;;;9.13;;
53040;SDS011;39326;42.650;23.248;2023-07-24T11:30:44;10.93;;;9.10;;
53040;SDS011;39326;42.650;23.248;2023-07-24T11:33:10;13.20;;;9.52;;
53040;SDS011;39326;42.650;23.248;2023-07-24T11:35:38;11.20;;;9.52;;
53040;SDS011;39326;42.650;23.248;2023-07-24T11:38:05;10.25;;;9.15;;
53040;SDS011;39326;42.650;23.248;2023-07-24T11:40:42;11.63;;;8.52;;
53040;SDS011;39326;42.650;23.248;2023-07-24T11:43:15;9.75;;;8.80;;
53040;SDS011;39326;42.650;23.248;2023-07-24T11:45:44;12.77;;;9.40;;
53040;SDS011;39326;42.650;23.248;2023-07-24T11:48:12;11.38;;;9.80;;
53040;SDS011;39326;42.650;23.248;2023-07-24T11:50:42;10.63;;;9.55;;
53040;SDS011;39326;42.650;23.248;2023-07-24T11:53:18;10.52;;;9.50;;
53040;SDS011;39326;42.650;23.248;2023-07-24T11:55:57;10.85;;;9.25;;
53040;SDS011;39326;42.650;23.248;2023-07-24T11:58:27;10.70;;;8.68;;
53040;SDS011;39326;42.650;23.248;2023-07-24T12:00:54;10.82;;;9.73;;
53040;SDS011;39326;42.650;23.248;2023-07-24T12:03:26;12.85;;;9.27;;
53040;SDS011;39326;42.650;23.248;2023-07-24T12:05:53;16.70;;;14.98;;
53040;SDS011;39326;42.650;23.248;2023-07-24T12:08:34;12.02;;;9.95;;
53040;SDS011;39326;42.650;23.248;2023-07-24T12:11:00;10.65;;;9.48;;
53040;SDS011;39326;42.650;23.248;2023-07-24T12:13:27;13.23;;;9.38;;
53040;SDS011;39326;42.650;23.248;2023-07-24T12:15:53;10.18;;;9.10;;
53040;SDS011;39326;42.650;23.248;2023-07-24T12:18:19;13.57;;;10.13;;
53040;SDS011;39326;42.650;23.248;2023-07-24T12:20:44;9.75;;;8.85;;
53040;SDS011;39326;42.650;23.248;2023-07-24T12:23:10;10.70;;;9.70;;
53040;SDS011;39326;42.650;23.248;2023-07-24T12:25:35;10.70;;;9.60;;
53040;SDS011;39326;42.650;23.248;2023-07-24T12:28:00;11.73;;;9.52;;
53040;SDS011;39326;42.650;23.248;2023-07-24T12:30:26;10.35;;;9.10;;
53040;SDS011;39326;42.650;23.248;2023-07-24T12:32:51;15.32;;;10.07;;
53040;SDS011;39326;42.650;23.248;2023-07-24T12:35:17;11.70;;;10.00;;
53040;SDS011;39326;42.650;23.248;2023-07-24T12:37:43;10.45;;;9.55;;
53040;SDS011;39326;42.650;23.248;2023-07-24T12:40:10;11.50;;;10.38;;
53040;SDS011;39326;42.650;23.248;2023-07-24T12:42:36;10.15;;;9.10;;
53040;SDS011;39326;42.650;23.248;2023-07-24T12:45:01;10.60;;;9.43;;
53040;SDS011;39326;42.650;23.248;2023-07-24T12:47:28;9.52;;;8.63;;
53040;SDS011;39326;42.650;23.248;2023-07-24T12:49:54;12.15;;;9.25;;
53040;SDS011;39326;42.650;23.248;2023-07-24T12:52:21;10.77;;;9.85;;
53040;SDS011;39326;42.650;23.248;2023-07-24T12:54:46;10.55;;;9.48;;
53040;SDS011;39326;42.650;23.248;2023-07-24T12:57:12;10.60;;;9.27;;
53040;SDS011;39326;42.650;23.248;2023-07-24T12:59:37;11.15;;;10.15;;
53040;SDS011;39326;42.650;23.248;2023-07-24T13:02:03;10.55;;;9.57;;
53040;SDS011;39326;42.650;23.248;2023-07-24T13:04:28;11.70;;;10.18;;
53040;SDS011;39326;42.650;23.248;2023-07-24T13:06:54;10.82;;;9.80;;
53040;SDS011;39326;42.650;23.248;2023-07-24T13:09:19;10.57;;;9.45;;
53040;SDS011;39326;42.650;23.248;2023-07-24T13:11:44;10.82;;;9.77;;
53040;SDS011;39326;42.650;23.248;2023-07-24T13:14:13;11.85;;;10.85;;
53040;SDS011;39326;42.650;23.248;2023-07-24T13:16:39;11.52;;;10.30;;
53040;SDS011;39326;42.650;23.248;2023-07-24T13:19:04;11.55;;;10.35;;
53040;SDS011;39326;42.650;23.248;2023-07-24T13:21:30;11.30;;;10.30;;
53040;SDS011;39326;42.650;23.248;2023-07-24T13:23:55;10.25;;;9.35;;
53040;SDS011;39326;42.650;23.248;2023-07-24T13:26:21;11.93;;;10.90;;
53040;SDS011;39326;42.650;23.248;2023-07-24T13:28:46;11.57;;;10.52;;
53040;SDS011;39326;42.650;23.248;2023-07-24T13:31:15;11.32;;;10.18;;
53040;SDS011;39326;42.650;23.248;2023-07-24T13:33:41;11.05;;;9.98;;
53040;SDS011;39326;42.650;23.248;2023-07-24T13:36:07;11.18;;;10.27;;
53040;SDS011;39326;42.650;23.248;2023-07-24T13:38:33;11.40;;;10.27;;
53040;SDS011;39326;42.650;23.248;2023-07-24T13:40:59;11.43;;;10.43;;
53040;SDS011;39326;42.650;23.248;2023-07-24T13:43:24;10.43;;;9.45;;
53040;SDS011;39326;42.650;23.248;2023-07-24T13:45:50;11.98;;;10.68;;
53040;SDS011;39326;42.650;23.248;2023-07-24T13:48:15;10.82;;;9.93;;
53040;SDS011;39326;42.650;23.248;2023-07-24T13:50:41;11.43;;;10.38;;
53040;SDS011;39326;42.650;23.248;2023-07-24T13:53:06;10.68;;;9.65;;
53040;SDS011;39326;42.650;23.248;2023-07-24T13:55:32;10.85;;;9.85;;
53040;SDS011;39326;42.650;23.248;2023-07-24T13:57:57;10.68;;;9.77;;
53040;SDS011;39326;42.650;23.248;2023-07-24T14:00:22;10.90;;;10.00;;
53040;SDS011;39326;42.650;23.248;2023-07-24T14:02:48;10.93;;;9.93;;
53040;SDS011;39326;42.650;23.248;2023-07-24T14:05:13;12.07;;;10.00;;
53040;SDS011;39326;42.650;23.248;2023-07-24T14:07:39;11.15;;;10.13;;
53040;SDS011;39326;42.650;23.248;2023-07-24T14:10:05;11.43;;;10.40;;
53040;SDS011;39326;42.650;23.248;2023-07-24T14:12:31;11.68;;;10.57;;